sensor_id;sensor_type;location;lat;lon;timestamp;temperature;humidity
35796;DHT22;21916;52.428;13.302;2022-08-21T00:02:27;18.80;99.90
35796;DHT22;21916;52.428;13.302;2022-08-21T00:04:54;18.70;99.90
35796;DHT22;21916;52.428;13.302;2022-08-21T00:07:20;18.70;99.90
35796;DHT22;21916;52.428;13.302;2022-08-21T00:09:46;18.70;99.90
35796;DHT22;21916;52.428;13.302;2022-08-21T00:12:12;18.60;99.90
35796;DHT22;21916;52.428;13.302;2022-08-21T00:14:39;18.60;99.90
35796;DHT22;21916;52.428;13.302;2022-08-21T00:17:05;18.70;99.90
35796;DHT22;21916;52.428;13.302;2022-08-21T00:19:32;18.60;99.90
35796;DHT22;21916;52.428;13.302;2022-08-21T00:21:59;18.60;99.90
35796;DHT22;21916;52.428;13.302;2022-08-21T00:24:28;18.60;99.90
35796;DHT22;21916;52.428;13.302;2022-08-21T00:26:54;18.50;99.90
35796;DHT22;21916;52.428;13.302;2022-08-21T00:29:20;18.60;99.90
35796;DHT22;21916;52.428;13.302;2022-08-21T00:31:46;18.60;99.90
35796;DHT22;21916;52.428;13.302;2022-08-21T00:34:13;18.50;99.90
35796;DHT22;21916;52.428;13.302;2022-08-21T00:36:39;18.50;99.90
35796;DHT22;21916;52.428;13.302;2022-08-21T00:39:07;18.50;99.90
35796;DHT22;21916;52.428;13.302;2022-08-21T00:41:35;18.50;99.90
35796;DHT22;21916;52.428;13.302;2022-08-21T00:44:02;18.50;99.90
35796;DHT22;21916;52.428;13.302;2022-08-21T00:46:29;18.40;99.90
35796;DHT22;21916;52.428;13.302;2022-08-21T00:48:55;18.40;99.90
35796;DHT22;21916;52.428;13.302;2022-08-21T00:52:00;18.40;99.90
35796;DHT22;21916;52.428;13.302;2022-08-21T00:54:28;18.30;99.90
35796;DHT22;21916;52.428;13.302;2022-08-21T00:57:04;18.30;99.90
35796;DHT22;21916;52.428;13.302;2022-08-21T00:59:35;18.20;99.90
35796;DHT22;21916;52.428;13.302;2022-08-21T01:02:07;18.20;99.90
35796;DHT22;21916;52.428;13.302;2022-08-21T01:04:33;18.20;99.90
35796;DHT22;21916;52.428;13.302;2022-08-21T01:07:00;18.20;99.90
35796;DHT22;21916;52.428;13.302;2022-08-21T01:09:26;18.10;99.90
35796;DHT22;21916;52.428;13.302;2022-08-21T01:11:52;18.10;99.90
35796;DHT22;21916;52.428;13.302;2022-08-21T01:14:18;18.00;99.90
35796;DHT22;21916;52.428;13.302;2022-08-21T01:16:50;18.10;99.90
35796;DHT22;21916;52.428;13.302;2022-08-21T01:19:18;18.00;99.90
35796;DHT22;21916;52.428;13.302;2022-08-21T01:21:45;18.00;99.90
35796;DHT22;21916;52.428;13.302;2022-08-21T01:24:12;18.00;99.90
35796;DHT22;21916;52.428;13.302;2022-08-21T01:26:43;18.00;99.90
35796;DHT22;21916;52.428;13.302;2022-08-21T01:29:25;18.00;99.90
35796;DHT22;21916;52.428;13.302;2022-08-21T01:31:52;17.90;99.90
35796;DHT22;21916;52.428;13.302;2022-08-21T01:34:18;18.00;99.90
35796;DHT22;21916;52.428;13.302;2022-08-21T01:36:46;17.90;99.90
35796;DHT22;21916;52.428;13.302;2022-08-21T01:39:12;17.90;99.90
35796;DHT22;21916;52.428;13.302;2022-08-21T01:41:38;17.90;99.90
35796;DHT22;21916;52.428;13.302;2022-08-21T01:44:04;17.80;99.90
35796;DHT22;21916;52.428;13.302;2022-08-21T01:46:32;17.90;99.90
35796;DHT22;21916;52.428;13.302;2022-08-21T01:48:58;17.80;99.90
35796;DHT22;21916;52.428;13.302;2022-08-21T01:51:27;17.80;99.90
35796;DHT22;21916;52.428;13.302;2022-08-21T01:53:53;17.80;99.90
35796;DHT22;21916;52.428;13.302;2022-08-21T01:56:18;17.80;99.90
35796;DHT22;21916;52.428;13.302;2022-08-21T01:58:48;17.80;99.90
35796;DHT22;21916;52.428;13.302;2022-08-21T02:01:14;17.70;99.90
35796;DHT22;21916;52.428;13.302;2022-08-21T02:03:41;17.70;99.90
35796;DHT22;21916;52.428;13.302;2022-08-21T02:06:11;17.70;99.90
35796;DHT22;21916;52.428;13.302;2022-08-21T02:08:37;17.70;99.90
35796;DHT22;21916;52.428;13.302;2022-08-21T02:11:03;17.70;99.90
35796;DHT22;21916;52.428;13.302;2022-08-21T02:13:29;17.60;99.90
35796;DHT22;21916;52.428;13.302;2022-08-21T02:15:55;17.70;99.90
35796;DHT22;21916;52.428;13.302;2022-08-21T02:18:20;17.60;99.90
35796;DHT22;21916;52.428;13.302;2022-08-21T02:20:48;17.60;99.90
35796;DHT22;21916;52.428;13.302;2022-08-21T02:23:15;17.50;99.90
35796;DHT22;21916;52.428;13.302;2022-08-21T02:25:41;17.60;99.90
35796;DHT22;21916;52.428;13.302;2022-08-21T02:28:11;17.50;99.90
35796;DHT22;21916;52.428;13.302;2022-08-21T02:30:41;17.50;99.90
35796;DHT22;21916;52.428;13.302;2022-08-21T02:33:09;17.50;99.90
35796;DHT22;21916;52.428;13.302;2022-08-21T02:35:35;17.50;99.90
35796;DHT22;21916;52.428;13.302;2022-08-21T02:38:05;17.40;99.90
35796;DHT22;21916;52.428;13.302;2022-08-21T02:40:34;17.40;99.90
35796;DHT22;21916;52.428;13.302;2022-08-21T02:43:02;17.40;99.90
35796;DHT22;21916;52.428;13.302;2022-08-21T02:45:29;17.30;99.90
35796;DHT22;21916;52.428;13.302;2022-08-21T02:47:58;17.20;99.90
35796;DHT22;21916;52.428;13.302;2022-08-21T02:50:31;17.30;99.90
35796;DHT22;21916;52.428;13.302;2022-08-21T02:52:58;17.20;99.90
35796;DHT22;21916;52.428;13.302;2022-08-21T02:55:26;17.20;99.90
35796;DHT22;21916;52.428;13.302;2022-08-21T02:57:53;17.10;99.90
35796;DHT22;21916;52.428;13.302;2022-08-21T03:00:19;17.10;99.90
35796;DHT22;21916;52.428;13.302;2022-08-21T03:02:46;17.10;99.90
35796;DHT22;21916;52.428;13.302;2022-08-21T03:05:13;17.10;99.90
35796;DHT22;21916;52.428;13.302;2022-08-21T03:07:41;17.10;99.90
35796;DHT22;21916;52.428;13.302;2022-08-21T03:10:08;17.10;99.90
35796;DHT22;21916;52.428;13.302;2022-08-21T03:12:34;17.00;99.90
35796;DHT22;21916;52.428;13.302;2022-08-21T03:15:06;17.10;99.90
35796;DHT22;21916;52.428;13.302;2022-08-21T03:17:33;17.00;99.90
35796;DHT22;21916;52.428;13.302;2022-08-21T03:19:59;17.00;99.90
35796;DHT22;21916;52.428;13.302;2022-08-21T03:22:26;16.90;99.90
35796;DHT22;21916;52.428;13.302;2022-08-21T03:24:53;16.90;99.90
35796;DHT22;21916;52.428;13.302;2022-08-21T03:27:19;16.90;99.90
35796;DHT22;21916;52.428;13.302;2022-08-21T03:29:45;16.90;99.90
35796;DHT22;21916;52.428;13.302;2022-08-21T03:32:11;16.90;99.90
35796;DHT22;21916;52.428;13.302;2022-08-21T03:34:38;16.90;99.90
35796;DHT22;21916;52.428;13.302;2022-08-21T03:37:06;16.90;99.90
35796;DHT22;21916;52.428;13.302;2022-08-21T03:39:33;16.90;99.90
35796;DHT22;21916;52.428;13.302;2022-08-21T03:41:59;16.90;99.90
35796;DHT22;21916;52.428;13.302;2022-08-21T03:44:26;16.80;99.90
35796;DHT22;21916;52.428;13.302;2022-08-21T03:46:54;16.80;99.90
35796;DHT22;21916;52.428;13.302;2022-08-21T03:49:20;16.80;99.90
35796;DHT22;21916;52.428;13.302;2022-08-21T03:51:46;16.80;99.90
35796;DHT22;21916;52.428;13.302;2022-08-21T03:54:12;16.80;99.90
35796;DHT22;21916;52.428;13.302;2022-08-21T03:56:38;16.70;99.90
35796;DHT22;21916;52.428;13.302;2022-08-21T03:59:05;16.70;99.90
35796;DHT22;21916;52.428;13.302;2022-08-21T04:01:31;16.50;99.90
35796;DHT22;21916;52.428;13.302;2022-08-21T04:03:57;16.60;99.90
35796;DHT22;21916;52.428;13.302;2022-08-21T04:06:23;16.50;99.90
35796;DHT22;21916;52.428;13.302;2022-08-21T04:08:50;16.60;99.90
35796;DHT22;21916;52.428;13.302;2022-08-21T04:11:16;16.50;99.90
35796;DHT22;21916;52.428;13.302;2022-08-21T04:13:42;16.60;99.90
35796;DHT22;21916;52.428;13.302;2022-08-21T04:16:08;16.50;99.90
35796;DHT22;21916;52.428;13.302;2022-08-21T04:18:34;16.40;99.90
35796;DHT22;21916;52.428;13.302;2022-08-21T04:21:00;16.40;99.90
35796;DHT22;21916;52.428;13.302;2022-08-21T04:23:27;16.40;99.90
35796;DHT22;21916;52.428;13.302;2022-08-21T04:25:54;16.30;99.90
35796;DHT22;21916;52.428;13.302;2022-08-21T04:28:23;16.40;99.90
35796;DHT22;21916;52.428;13.302;2022-08-21T04:30:50;16.30;99.90
35796;DHT22;21916;52.428;13.302;2022-08-21T04:33:17;16.30;99.90
35796;DHT22;21916;52.428;13.302;2022-08-21T04:35:43;16.30;99.90
35796;DHT22;21916;52.428;13.302;2022-08-21T04:38:09;16.20;99.90
35796;DHT22;21916;52.428;13.302;2022-08-21T04:40:36;16.30;99.90
35796;DHT22;21916;52.428;13.302;2022-08-21T04:43:10;16.40;99.90
35796;DHT22;21916;52.428;13.302;2022-08-21T04:45:44;16.30;99.90
35796;DHT22;21916;52.428;13.302;2022-08-21T04:48:13;16.40;99.90
35796;DHT22;21916;52.428;13.302;2022-08-21T04:53:30;16.40;99.90
35796;DHT22;21916;52.428;13.302;2022-08-21T04:56:02;16.30;99.90
35796;DHT22;21916;52.428;13.302;2022-08-21T04:58:30;16.40;99.90
35796;DHT22;21916;52.428;13.302;2022-08-21T05:01:00;16.50;99.90
35796;DHT22;21916;52.428;13.302;2022-08-21T05:03:27;16.40;99.90
35796;DHT22;21916;52.428;13.302;2022-08-21T05:05:54;16.50;99.90
35796;DHT22;21916;52.428;13.302;2022-08-21T05:08:25;16.50;99.90
35796;DHT22;21916;52.428;13.302;2022-08-21T05:10:52;16.40;99.90
35796;DHT22;21916;52.428;13.302;2022-08-21T05:13:18;16.50;99.90
35796;DHT22;21916;52.428;13.302;2022-08-21T05:15:45;16.40;99.90
35796;DHT22;21916;52.428;13.302;2022-08-21T05:18:11;16.40;99.90
35796;DHT22;21916;52.428;13.302;2022-08-21T05:20:37;16.40;99.90
35796;DHT22;21916;52.428;13.302;2022-08-21T05:23:12;16.50;99.90
35796;DHT22;21916;52.428;13.302;2022-08-21T05:25:38;16.60;99.90
35796;DHT22;21916;52.428;13.302;2022-08-21T05:28:04;16.60;99.90
35796;DHT22;21916;52.428;13.302;2022-08-21T05:30:31;16.70;99.90
35796;DHT22;21916;52.428;13.302;2022-08-21T05:32:59;16.70;99.90
35796;DHT22;21916;52.428;13.302;2022-08-21T05:35:26;16.70;99.90
35796;DHT22;21916;52.428;13.302;2022-08-21T05:37:52;16.70;99.90
35796;DHT22;21916;52.428;13.302;2022-08-21T05:40:18;16.80;99.90
35796;DHT22;21916;52.428;13.302;2022-08-21T05:42:44;16.70;99.90
35796;DHT22;21916;52.428;13.302;2022-08-21T05:45:10;16.70;99.90
35796;DHT22;21916;52.428;13.302;2022-08-21T05:47:37;16.70;99.90
35796;DHT22;21916;52.428;13.302;2022-08-21T05:50:04;16.70;99.90
35796;DHT22;21916;52.428;13.302;2022-08-21T05:52:30;16.70;99.90
35796;DHT22;21916;52.428;13.302;2022-08-21T05:54:55;16.70;99.90
35796;DHT22;21916;52.428;13.302;2022-08-21T05:57:22;16.80;99.90
35796;DHT22;21916;52.428;13.302;2022-08-21T05:59:49;16.80;99.90
35796;DHT22;21916;52.428;13.302;2022-08-21T06:02:19;16.80;99.90
35796;DHT22;21916;52.428;13.302;2022-08-21T06:04:46;16.90;99.90
35796;DHT22;21916;52.428;13.302;2022-08-21T06:07:13;17.00;99.90
35796;DHT22;21916;52.428;13.302;2022-08-21T06:09:39;16.90;99.90
35796;DHT22;21916;52.428;13.302;2022-08-21T06:12:08;16.90;99.90
35796;DHT22;21916;52.428;13.302;2022-08-21T06:14:35;17.00;99.90
35796;DHT22;21916;52.428;13.302;2022-08-21T06:17:09;17.00;99.90
35796;DHT22;21916;52.428;13.302;2022-08-21T06:19:36;17.10;99.90
35796;DHT22;21916;52.428;13.302;2022-08-21T06:22:03;17.20;99.90
35796;DHT22;21916;52.428;13.302;2022-08-21T06:24:29;17.20;99.90
35796;DHT22;21916;52.428;13.302;2022-08-21T06:26:55;17.20;99.90
35796;DHT22;21916;52.428;13.302;2022-08-21T06:29:22;17.30;99.90
35796;DHT22;21916;52.428;13.302;2022-08-21T06:31:50;17.30;99.90
35796;DHT22;21916;52.428;13.302;2022-08-21T06:34:17;17.30;99.90
35796;DHT22;21916;52.428;13.302;2022-08-21T06:36:44;17.40;99.90
35796;DHT22;21916;52.428;13.302;2022-08-21T06:39:10;17.30;99.90
35796;DHT22;21916;52.428;13.302;2022-08-21T06:41:36;17.30;99.90
35796;DHT22;21916;52.428;13.302;2022-08-21T06:44:02;17.50;99.90
35796;DHT22;21916;52.428;13.302;2022-08-21T06:46:29;17.60;99.90
35796;DHT22;21916;52.428;13.302;2022-08-21T06:48:56;17.50;99.90
35796;DHT22;21916;52.428;13.302;2022-08-21T06:51:22;17.40;99.90
35796;DHT22;21916;52.428;13.302;2022-08-21T06:53:48;17.50;99.90
35796;DHT22;21916;52.428;13.302;2022-08-21T06:56:15;17.50;99.90
35796;DHT22;21916;52.428;13.302;2022-08-21T06:58:41;17.50;99.90
35796;DHT22;21916;52.428;13.302;2022-08-21T07:01:06;17.60;99.90
35796;DHT22;21916;52.428;13.302;2022-08-21T07:03:35;17.80;99.90
35796;DHT22;21916;52.428;13.302;2022-08-21T07:06:04;17.90;99.90
35796;DHT22;21916;52.428;13.302;2022-08-21T07:08:31;17.90;99.90
35796;DHT22;21916;52.428;13.302;2022-08-21T07:10:58;17.90;99.90
35796;DHT22;21916;52.428;13.302;2022-08-21T07:13:25;17.80;99.90
35796;DHT22;21916;52.428;13.302;2022-08-21T07:15:51;17.90;99.90
35796;DHT22;21916;52.428;13.302;2022-08-21T07:18:17;18.00;99.90
35796;DHT22;21916;52.428;13.302;2022-08-21T07:20:44;18.00;99.90
35796;DHT22;21916;52.428;13.302;2022-08-21T07:23:18;18.10;99.90
35796;DHT22;21916;52.428;13.302;2022-08-21T07:25:45;18.10;99.90
35796;DHT22;21916;52.428;13.302;2022-08-21T07:28:14;18.40;99.90
35796;DHT22;21916;52.428;13.302;2022-08-21T07:30:40;18.70;99.90
35796;DHT22;21916;52.428;13.302;2022-08-21T07:33:06;18.80;99.90
35796;DHT22;21916;52.428;13.302;2022-08-21T07:35:32;18.70;99.90
35796;DHT22;21916;52.428;13.302;2022-08-21T07:37:59;18.80;99.90
35796;DHT22;21916;52.428;13.302;2022-08-21T07:40:25;18.90;99.90
35796;DHT22;21916;52.428;13.302;2022-08-21T07:42:51;19.00;99.90
35796;DHT22;21916;52.428;13.302;2022-08-21T07:45:22;19.10;99.90
35796;DHT22;21916;52.428;13.302;2022-08-21T07:47:50;19.10;99.90
35796;DHT22;21916;52.428;13.302;2022-08-21T07:50:18;19.20;99.90
35796;DHT22;21916;52.428;13.302;2022-08-21T07:52:44;19.30;99.90
35796;DHT22;21916;52.428;13.302;2022-08-21T07:55:13;19.30;99.90
35796;DHT22;21916;52.428;13.302;2022-08-21T07:57:42;19.40;99.90
35796;DHT22;21916;52.428;13.302;2022-08-21T08:00:11;19.60;99.90
35796;DHT22;21916;52.428;13.302;2022-08-21T08:02:38;19.70;99.90
35796;DHT22;21916;52.428;13.302;2022-08-21T08:05:06;19.80;99.90
35796;DHT22;21916;52.428;13.302;2022-08-21T08:07:32;19.80;99.90
35796;DHT22;21916;52.428;13.302;2022-08-21T08:09:58;19.90;99.90
35796;DHT22;21916;52.428;13.302;2022-08-21T08:12:24;19.90;99.90
35796;DHT22;21916;52.428;13.302;2022-08-21T08:14:59;20.00;99.90
35796;DHT22;21916;52.428;13.302;2022-08-21T08:17:25;20.20;99.90
35796;DHT22;21916;52.428;13.302;2022-08-21T08:19:52;20.20;99.90
35796;DHT22;21916;52.428;13.302;2022-08-21T08:22:20;20.40;99.90
35796;DHT22;21916;52.428;13.302;2022-08-21T08:24:47;20.50;99.90
35796;DHT22;21916;52.428;13.302;2022-08-21T08:27:14;20.60;99.90
35796;DHT22;21916;52.428;13.302;2022-08-21T08:29:42;20.50;99.90
35796;DHT22;21916;52.428;13.302;2022-08-21T08:32:08;20.60;99.90
35796;DHT22;21916;52.428;13.302;2022-08-21T08:34:35;20.70;99.90
35796;DHT22;21916;52.428;13.302;2022-08-21T08:37:01;20.90;99.90
35796;DHT22;21916;52.428;13.302;2022-08-21T08:39:29;21.20;99.90
35796;DHT22;21916;52.428;13.302;2022-08-21T08:42:05;21.40;99.90
35796;DHT22;21916;52.428;13.302;2022-08-21T08:44:33;21.60;99.90
35796;DHT22;21916;52.428;13.302;2022-08-21T08:47:01;21.90;99.90
35796;DHT22;21916;52.428;13.302;2022-08-21T08:52:26;22.40;99.90
35796;DHT22;21916;52.428;13.302;2022-08-21T08:55:11;22.30;99.90
35796;DHT22;21916;52.428;13.302;2022-08-21T08:57:41;22.00;99.90
35796;DHT22;21916;52.428;13.302;2022-08-21T09:00:10;22.20;99.90
35796;DHT22;21916;52.428;13.302;2022-08-21T09:02:41;22.20;99.90
35796;DHT22;21916;52.428;13.302;2022-08-21T09:05:25;21.70;99.90
35796;DHT22;21916;52.428;13.302;2022-08-21T09:07:55;21.40;99.90
35796;DHT22;21916;52.428;13.302;2022-08-21T09:13:11;21.70;99.90
35796;DHT22;21916;52.428;13.302;2022-08-21T09:21:43;21.90;99.90
35796;DHT22;21916;52.428;13.302;2022-08-21T09:29:20;22.00;99.90
35796;DHT22;21916;52.428;13.302;2022-08-21T09:31:49;22.20;99.90
35796;DHT22;21916;52.428;13.302;2022-08-21T09:34:30;22.30;99.90
35796;DHT22;21916;52.428;13.302;2022-08-21T09:36:57;22.30;99.90
35796;DHT22;21916;52.428;13.302;2022-08-21T09:39:27;22.50;99.90
35796;DHT22;21916;52.428;13.302;2022-08-21T09:42:06;22.40;99.90
35796;DHT22;21916;52.428;13.302;2022-08-21T09:44:35;22.40;99.90
35796;DHT22;21916;52.428;13.302;2022-08-21T09:47:06;22.30;99.90
35796;DHT22;21916;52.428;13.302;2022-08-21T09:49:35;22.30;99.90
35796;DHT22;21916;52.428;13.302;2022-08-21T09:52:04;22.30;99.90
35796;DHT22;21916;52.428;13.302;2022-08-21T09:54:35;22.40;99.90
35796;DHT22;21916;52.428;13.302;2022-08-21T09:57:23;22.60;99.90
35796;DHT22;21916;52.428;13.302;2022-08-21T10:00:28;23.10;99.90
35796;DHT22;21916;52.428;13.302;2022-08-21T10:03:08;23.50;98.70
35796;DHT22;21916;52.428;13.302;2022-08-21T10:05:34;23.50;97.10
35796;DHT22;21916;52.428;13.302;2022-08-21T10:08:01;23.00;98.30
35796;DHT22;21916;52.428;13.302;2022-08-21T10:10:29;23.00;97.90
35796;DHT22;21916;52.428;13.302;2022-08-21T10:26:18;24.00;96.10
35796;DHT22;21916;52.428;13.302;2022-08-21T10:29:09;24.20;95.30
35796;DHT22;21916;52.428;13.302;2022-08-21T10:39:37;24.00;95.00
35796;DHT22;21916;52.428;13.302;2022-08-21T10:42:22;24.00;95.10
35796;DHT22;21916;52.428;13.302;2022-08-21T10:46:00;24.20;95.20
35796;DHT22;21916;52.428;13.302;2022-08-21T10:47:56;24.40;93.00
35796;DHT22;21916;52.428;13.302;2022-08-21T10:50:51;24.30;93.00
35796;DHT22;21916;52.428;13.302;2022-08-21T10:56:25;24.20;93.50
35796;DHT22;21916;52.428;13.302;2022-08-21T10:59:07;25.10;92.90
35796;DHT22;21916;52.428;13.302;2022-08-21T11:01:51;25.20;91.50
35796;DHT22;21916;52.428;13.302;2022-08-21T11:09:43;26.00;90.00
35796;DHT22;21916;52.428;13.302;2022-08-21T11:12:40;27.70;89.60
35796;DHT22;21916;52.428;13.302;2022-08-21T11:20:35;27.90;82.40
35796;DHT22;21916;52.428;13.302;2022-08-21T11:23:11;27.40;78.70
35796;DHT22;21916;52.428;13.302;2022-08-21T11:25:44;26.60;80.00
35796;DHT22;21916;52.428;13.302;2022-08-21T11:28:16;26.80;80.60
35796;DHT22;21916;52.428;13.302;2022-08-21T11:31:04;27.20;78.40
35796;DHT22;21916;52.428;13.302;2022-08-21T11:42:19;27.40;78.20
35796;DHT22;21916;52.428;13.302;2022-08-21T11:50:16;28.60;77.80
35796;DHT22;21916;52.428;13.302;2022-08-21T12:01:00;28.30;76.80
35796;DHT22;21916;52.428;13.302;2022-08-21T12:03:41;29.40;75.10
35796;DHT22;21916;52.428;13.302;2022-08-21T12:06:11;30.70;75.10
35796;DHT22;21916;52.428;13.302;2022-08-21T12:08:40;31.80;71.80
35796;DHT22;21916;52.428;13.302;2022-08-21T12:11:08;31.50;71.10
35796;DHT22;21916;52.428;13.302;2022-08-21T12:13:51;32.70;67.90
35796;DHT22;21916;52.428;13.302;2022-08-21T12:16:39;32.60;69.10
35796;DHT22;21916;52.428;13.302;2022-08-21T12:22:07;31.90;68.50
35796;DHT22;21916;52.428;13.302;2022-08-21T12:24:48;32.50;66.70
35796;DHT22;21916;52.428;13.302;2022-08-21T12:29:47;34.20;66.60
35796;DHT22;21916;52.428;13.302;2022-08-21T12:34:55;36.10;61.60
35796;DHT22;21916;52.428;13.302;2022-08-21T12:37:41;36.10;60.50
35796;DHT22;21916;52.428;13.302;2022-08-21T12:40:25;34.90;60.30
35796;DHT22;21916;52.428;13.302;2022-08-21T12:42:55;36.40;59.50
35796;DHT22;21916;52.428;13.302;2022-08-21T12:45:36;37.80;57.60
35796;DHT22;21916;52.428;13.302;2022-08-21T12:50:57;36.50;56.00
35796;DHT22;21916;52.428;13.302;2022-08-21T12:53:36;35.90;57.00
35796;DHT22;21916;52.428;13.302;2022-08-21T12:56:09;37.70;56.40
35796;DHT22;21916;52.428;13.302;2022-08-21T12:58:35;38.30;54.40
35796;DHT22;21916;52.428;13.302;2022-08-21T13:04:10;38.00;55.30
35796;DHT22;21916;52.428;13.302;2022-08-21T13:06:40;39.40;54.40
35796;DHT22;21916;52.428;13.302;2022-08-21T13:09:14;39.70;53.80
35796;DHT22;21916;52.428;13.302;2022-08-21T13:11:42;39.40;52.90
35796;DHT22;21916;52.428;13.302;2022-08-21T13:14:19;37.90;54.00
35796;DHT22;21916;52.428;13.302;2022-08-21T13:16:54;35.70;55.20
35796;DHT22;21916;52.428;13.302;2022-08-21T13:19:22;34.70;56.80
35796;DHT22;21916;52.428;13.302;2022-08-21T13:21:49;34.40;57.50
35796;DHT22;21916;52.428;13.302;2022-08-21T13:26:50;35.10;56.60
35796;DHT22;21916;52.428;13.302;2022-08-21T13:29:18;36.10;55.80
35796;DHT22;21916;52.428;13.302;2022-08-21T13:31:54;35.90;56.90
35796;DHT22;21916;52.428;13.302;2022-08-21T13:34:23;35.30;56.40
35796;DHT22;21916;52.428;13.302;2022-08-21T13:36:56;34.00;58.10
35796;DHT22;21916;52.428;13.302;2022-08-21T13:39:23;33.10;59.10
35796;DHT22;21916;52.428;13.302;2022-08-21T13:41:53;32.20;59.90
35796;DHT22;21916;52.428;13.302;2022-08-21T13:44:42;32.50;60.80
35796;DHT22;21916;52.428;13.302;2022-08-21T13:47:10;33.30;58.30
35796;DHT22;21916;52.428;13.302;2022-08-21T13:49:40;31.20;60.20
35796;DHT22;21916;52.428;13.302;2022-08-21T13:52:22;29.10;63.70
35796;DHT22;21916;52.428;13.302;2022-08-21T13:54:57;28.70;65.00
35796;DHT22;21916;52.428;13.302;2022-08-21T13:57:29;28.70;66.10
35796;DHT22;21916;52.428;13.302;2022-08-21T14:02:42;27.70;67.20
35796;DHT22;21916;52.428;13.302;2022-08-21T14:05:16;27.20;69.20
35796;DHT22;21916;52.428;13.302;2022-08-21T14:07:47;27.00;69.20
35796;DHT22;21916;52.428;13.302;2022-08-21T14:10:20;27.00;69.00
35796;DHT22;21916;52.428;13.302;2022-08-21T14:12:56;26.90;70.90
35796;DHT22;21916;52.428;13.302;2022-08-21T14:15:27;26.80;70.10
35796;DHT22;21916;52.428;13.302;2022-08-21T14:17:57;26.50;70.80
35796;DHT22;21916;52.428;13.302;2022-08-21T14:20:36;26.30;71.20
35796;DHT22;21916;52.428;13.302;2022-08-21T14:23:02;26.50;72.20
35796;DHT22;21916;52.428;13.302;2022-08-21T14:25:51;27.50;69.10
35796;DHT22;21916;52.428;13.302;2022-08-21T14:28:26;28.90;68.40
35796;DHT22;21916;52.428;13.302;2022-08-21T14:30:55;29.50;65.50
35796;DHT22;21916;52.428;13.302;2022-08-21T14:33:31;30.40;65.30
35796;DHT22;21916;52.428;13.302;2022-08-21T14:35:57;30.30;63.80
35796;DHT22;21916;52.428;13.302;2022-08-21T14:38:26;30.40;65.40
35796;DHT22;21916;52.428;13.302;2022-08-21T14:40:55;31.70;63.10
35796;DHT22;21916;52.428;13.302;2022-08-21T14:43:23;31.30;61.70
35796;DHT22;21916;52.428;13.302;2022-08-21T14:45:51;31.40;62.20
35796;DHT22;21916;52.428;13.302;2022-08-21T14:48:17;32.00;62.40
35796;DHT22;21916;52.428;13.302;2022-08-21T14:50:42;31.00;64.00
35796;DHT22;21916;52.428;13.302;2022-08-21T14:53:09;29.30;65.30
35796;DHT22;21916;52.428;13.302;2022-08-21T14:55:36;28.60;66.70
35796;DHT22;21916;52.428;13.302;2022-08-21T14:58:23;27.90;68.70
35796;DHT22;21916;52.428;13.302;2022-08-21T15:00:51;27.00;69.60
35796;DHT22;21916;52.428;13.302;2022-08-21T15:03:18;26.20;71.30
35796;DHT22;21916;52.428;13.302;2022-08-21T15:05:44;25.80;72.30
35796;DHT22;21916;52.428;13.302;2022-08-21T15:08:10;25.80;73.30
35796;DHT22;21916;52.428;13.302;2022-08-21T15:10:36;25.80;73.50
35796;DHT22;21916;52.428;13.302;2022-08-21T15:13:02;26.40;72.60
35796;DHT22;21916;52.428;13.302;2022-08-21T15:15:30;27.10;71.70
35796;DHT22;21916;52.428;13.302;2022-08-21T15:17:57;27.70;70.60
35796;DHT22;21916;52.428;13.302;2022-08-21T15:20:23;27.40;70.80
35796;DHT22;21916;52.428;13.302;2022-08-21T15:22:49;27.10;71.40
35796;DHT22;21916;52.428;13.302;2022-08-21T15:25:15;26.60;72.30
35796;DHT22;21916;52.428;13.302;2022-08-21T15:27:41;26.00;71.70
35796;DHT22;21916;52.428;13.302;2022-08-21T15:30:07;25.60;73.40
35796;DHT22;21916;52.428;13.302;2022-08-21T15:32:33;25.50;74.80
35796;DHT22;21916;52.428;13.302;2022-08-21T15:34:59;25.20;73.10
35796;DHT22;21916;52.428;13.302;2022-08-21T15:37:27;25.00;73.30
35796;DHT22;21916;52.428;13.302;2022-08-21T15:39:53;24.90;74.50
35796;DHT22;21916;52.428;13.302;2022-08-21T15:42:23;25.20;74.80
35796;DHT22;21916;52.428;13.302;2022-08-21T15:44:50;25.90;74.30
35796;DHT22;21916;52.428;13.302;2022-08-21T15:47:19;27.50;71.90
35796;DHT22;21916;52.428;13.302;2022-08-21T15:49:46;29.60;68.90
35796;DHT22;21916;52.428;13.302;2022-08-21T15:52:17;30.90;66.20
35796;DHT22;21916;52.428;13.302;2022-08-21T15:54:44;30.90;64.90
35796;DHT22;21916;52.428;13.302;2022-08-21T15:57:13;30.30;65.40
35796;DHT22;21916;52.428;13.302;2022-08-21T15:59:44;29.00;66.20
35796;DHT22;21916;52.428;13.302;2022-08-21T16:02:17;27.80;68.80
35796;DHT22;21916;52.428;13.302;2022-08-21T16:04:45;27.30;69.20
35796;DHT22;21916;52.428;13.302;2022-08-21T16:07:11;26.30;71.30
35796;DHT22;21916;52.428;13.302;2022-08-21T16:09:37;26.30;72.60
35796;DHT22;21916;52.428;13.302;2022-08-21T16:12:04;26.30;71.80
35796;DHT22;21916;52.428;13.302;2022-08-21T16:14:31;26.20;72.60
35796;DHT22;21916;52.428;13.302;2022-08-21T16:16:58;26.10;73.50
35796;DHT22;21916;52.428;13.302;2022-08-21T16:19:26;26.10;75.10
35796;DHT22;21916;52.428;13.302;2022-08-21T16:21:53;26.10;73.90
35796;DHT22;21916;52.428;13.302;2022-08-21T16:24:19;26.10;74.00
35796;DHT22;21916;52.428;13.302;2022-08-21T16:26:45;26.20;74.40
35796;DHT22;21916;52.428;13.302;2022-08-21T16:29:11;26.10;74.70
35796;DHT22;21916;52.428;13.302;2022-08-21T16:31:37;25.90;73.60
35796;DHT22;21916;52.428;13.302;2022-08-21T16:34:03;25.90;73.90
35796;DHT22;21916;52.428;13.302;2022-08-21T16:36:29;25.90;74.40
35796;DHT22;21916;52.428;13.302;2022-08-21T16:38:56;26.20;75.00
35796;DHT22;21916;52.428;13.302;2022-08-21T16:41:25;27.00;74.50
35796;DHT22;21916;52.428;13.302;2022-08-21T16:43:52;28.60;72.30
35796;DHT22;21916;52.428;13.302;2022-08-21T16:46:19;30.10;70.50
35796;DHT22;21916;52.428;13.302;2022-08-21T16:48:46;31.10;68.00
35796;DHT22;21916;52.428;13.302;2022-08-21T16:51:13;31.40;66.10
35796;DHT22;21916;52.428;13.302;2022-08-21T16:53:40;32.30;65.50
35796;DHT22;21916;52.428;13.302;2022-08-21T16:56:06;32.30;64.70
35796;DHT22;21916;52.428;13.302;2022-08-21T16:58:36;32.40;64.70
35796;DHT22;21916;52.428;13.302;2022-08-21T17:01:07;32.40;64.20
35796;DHT22;21916;52.428;13.302;2022-08-21T17:03:41;31.90;64.30
35796;DHT22;21916;52.428;13.302;2022-08-21T17:06:07;31.40;65.90